シンガポール/チャンギ の空港の天気 - METARとTAF

シンガポール・チャンギ国際空港 ( WSSS / SIN ) - シンガポール Changi
飛行場実況気象(Metar)
観測時間08/16 14:30 SGT (08/16 06:30 UTC)
風向・風速南 5m/s
視程10km以上
天気現象
少しの雲 雲底高度 610m
全天の8割程度の雲 雲底高度 9140m
気温33℃
湿度59%
気圧1008hPa
METARWSSS 160630Z 18009KT 110V250 9999 FEW020TCU BKN300 33/24 Q1008 NOSIG
過去の天気等 Google飛行場航空写真 Wunderground天気予報

過去48時間のMETAR

飛行場予報(TAF)
発表時間: 8/16 13:00 SGT (8/16 05:00 UTC)
予報対象時間: 16日14時 SGT ~ 17日20時 SGT
風向・風速南南東 5m/s
視程10km以上
少しの雲 雲底高度 460m
全天の4割程度の雲 雲底高度 610m
17日10時 SGT ~ 17日14時 SGT に一時的に
視程3000m
天気現象雷雨
少しの積乱雲 雲底高度 370m
全天の8割程度の雲 雲底高度 460m
TAF WSSS 160500Z 1606/1712 16010KT 9999 FEW015 SCT020
TEMPO 1702/1706 3000 TSRA FEW012CB BKN015